+07,Max TemperatureF,Mean TemperatureF,Min TemperatureF,Max Dew PointF,MeanDew PointF,Min DewpointF,Max Humidity, Mean Humidity, Min Humidity, Max Sea Level PressureIn, Mean Sea Level PressureIn, Min Sea Level PressureIn, Max VisibilityMiles, Mean VisibilityMiles, Min VisibilityMiles, Max Wind SpeedMPH, Mean Wind SpeedMPH, Max Gust SpeedMPH,PrecipitationIn, CloudCover, Events, WindDirDegrees
2012-9-1,94,86,77,81,75,72,100,73,52,29.74,29.67,29.62,7,6,6,8,2,,0.00,6,Rain-Thunderstorm,191
2012-9-2,90,83,76,79,75,72,100,77,58,29.74,29.67,29.59,7,5,1,4,2,,0.00,7,Rain,-1
2012-9-3,93,83,73,79,75,70,100,82,52,29.77,29.71,29.65,7,6,4,6,2,,0.00,5,Rain-Thunderstorm,251
2012-9-4,94,86,77,81,76,70,100,75,46,29.86,29.78,29.71,7,6,5,5,2,,T,3,Rain-Thunderstorm,61
2012-9-5,92,82,73,77,75,72,92,73,52,29.82,29.73,29.68,7,6,4,6,1,,0.00,6,Rain,300
2012-9-6,92,84,76,84,75,70,100,72,47,29.80,29.74,29.65,7,5,1,14,4,,0.00,5,Rain-Thunderstorm,355
2012-9-7,86,80,75,88,80,74,100,90,70,29.80,29.76,29.71,7,5,1,7,2,,0.00,6,Rain-Thunderstorm,347
2012-9-8,88,82,76,79,76,73,100,82,62,29.86,29.80,29.74,6,5,2,12,2,,0.00,7,Rain-Thunderstorm,190
2012-9-9,83,79,75,84,79,73,100,93,71,29.92,29.85,29.80,7,6,2,6,2,,0.00,8,Rain,10
2012-9-10,89,82,74,82,76,70,100,80,52,29.89,29.80,29.74,7,6,6,9,2,23,0.00,5,Rain-Thunderstorm,95
2012-9-11,93,84,74,81,73,68,100,71,46,29.86,29.76,29.65,7,6,5,5,2,,0.00,3,,0
2012-9-12,94,84,75,79,74,68,100,70,46,29.83,29.74,29.65,7,6,2,9,2,,0.00,3,,171
2012-9-13,94,84,75,79,74,70,100,74,46,29.83,29.73,29.62,7,6,1,8,2,,0.00,6,Fog-Rain-Thunderstorm,194
2012-9-14,88,80,73,82,77,72,100,87,70,29.83,29.75,29.65,6,5,2,5,2,,0.00,6,Rain,-1
2012-9-15,92,82,73,81,74,70,100,77,52,29.83,29.77,29.71,7,6,6,12,3,,0.00,4,,7
2012-9-16,90,82,75,79,74,70,100,77,50,29.86,29.80,29.74,7,6,6,6,1,,0.00,5,,333
2012-9-17,95,85,75,79,75,73,100,72,48,29.89,29.81,29.71,7,6,2,6,2,,0.00,3,,190
2012-9-18,95,85,75,79,75,70,100,76,49,29.86,29.78,29.68,7,6,1,6,2,,0.00,5,,268
2012-9-19,92,84,75,81,76,72,100,76,52,29.83,29.76,29.68,7,6,2,5,2,,0.00,7,Fog,107
2012-9-20,91,84,77,79,76,73,100,79,59,29.83,29.78,29.71,7,5,0,12,3,,0.00,6,Fog-Rain,189
2012-9-21,96,86,75,77,74,70,100,73,46,29.86,29.77,29.68,7,5,1,10,3,,T,5,Rain-Thunderstorm,23
2012-9-22,93,84,75,81,75,73,100,75,55,29.86,29.77,29.68,7,6,5,7,2,,0.00,7,Rain-Thunderstorm,5
2012-9-23,96,86,75,82,76,70,100,74,46,29.80,29.71,29.62,7,6,2,6,2,,0.00,5,,217
2012-9-24,92,84,77,79,78,75,100,87,57,29.77,29.67,29.62,7,5,1,14,2,,0.00,7,Rain-Thunderstorm,253
2012-9-25,93,84,76,79,76,73,100,76,55,29.80,29.71,29.65,7,6,2,10,2,18,0.00,6,Rain-Thunderstorm,10
2012-9-26,94,84,75,77,75,72,100,73,49,29.89,29.80,29.71,7,6,2,5,2,,0.00,6,,220
2012-9-27,91,83,75,79,75,70,100,85,49,29.92,29.82,29.71,7,5,2,6,2,,0.00,6,Rain-Thunderstorm,220
2012-9-28,88,80,73,79,76,73,100,89,72,29.89,29.81,29.77,6,5,2,10,2,,0.00,7,Rain,157
2012-9-29,91,82,75,79,74,68,100,74,49,29.92,29.84,29.77,7,5,1,7,2,,0.00,5,,197
2012-9-30,90,83,76,77,73,68,100,71,49,29.92,29.85,29.77,6,6,2,4,1,,0.00,5,,-1